createdAt,value
2018-01-01T00:02:10.523Z,240.33
2018-01-01T00:04:38.145Z,230.47
2018-01-01T00:07:05.870Z,297.23
2018-01-01T00:09:33.485Z,329.00
2018-01-01T00:12:01.098Z,308.60
2018-01-01T00:14:28.728Z,309.97
2018-01-01T00:16:56.402Z,353.20
2018-01-01T00:19:24.090Z,267.83
2018-01-01T00:21:51.710Z,288.03
2018-01-01T00:24:19.345Z,296.47
2018-01-01T00:26:46.978Z,289.33
2018-01-01T00:29:14.582Z,327.10
2018-01-01T00:31:42.254Z,396.43
2018-01-01T00:34:09.868Z,392.50
2018-01-01T00:36:37.543Z,378.87
2018-01-01T00:39:05.335Z,361.53
2018-01-01T00:41:32.958Z,356.37
2018-01-01T00:44:00.704Z,344.43
2018-01-01T00:46:28.342Z,348.57
2018-01-01T00:48:55.971Z,325.20
2018-01-01T00:51:23.658Z,316.20
2018-01-01T00:53:51.338Z,308.20
2018-01-01T00:56:19.010Z,313.40
2018-01-01T00:58:46.622Z,303.53
2018-01-01T01:01:14.263Z,296.23
2018-01-01T01:03:41.904Z,290.10
2018-01-01T01:06:09.518Z,273.10
2018-01-01T01:08:37.206Z,281.33
2018-01-01T01:11:04.826Z,271.60
2018-01-01T01:13:32.444Z,266.70
2018-01-01T01:16:00.127Z,228.93
2018-01-01T01:18:27.733Z,187.80
2018-01-01T01:20:55.395Z,192.03
2018-01-01T01:23:23.071Z,198.40
2018-01-01T01:25:50.686Z,211.10
2018-01-01T01:28:20.122Z,167.90
2018-01-01T01:30:47.747Z,193.50
2018-01-01T01:33:15.476Z,120.67
2018-01-01T01:35:43.083Z,151.47
2018-01-01T01:38:10.759Z,172.33
2018-01-01T01:40:38.442Z,226.80
2018-01-01T01:43:06.118Z,176.93
2018-01-01T01:45:33.786Z,179.90
2018-01-01T01:48:01.481Z,143.37
2018-01-01T01:50:29.108Z,120.77
2018-01-01T01:52:56.723Z,105.80
2018-01-01T01:55:24.335Z,176.10
2018-01-01T01:57:52.011Z,157.20
2018-01-01T02:00:19.630Z,159.87
2018-01-01T02:02:47.321Z,156.30
2018-01-01T02:05:14.942Z,162.20
2018-01-01T02:07:42.614Z,158.77
2018-01-01T02:10:10.269Z,139.43
2018-01-01T02:12:37.878Z,254.93
2018-01-01T02:15:05.547Z,131.37
2018-01-01T02:17:33.216Z,129.70
2018-01-01T02:20:00.828Z,153.97
2018-01-01T02:22:28.541Z,138.10
2018-01-01T02:24:56.153Z,140.73
2018-01-01T02:27:23.815Z,146.47
2018-01-01T02:29:51.437Z,149.80
2018-01-01T02:32:30.839Z,151.53
2018-01-01T02:34:58.575Z,153.53
2018-01-01T02:37:26.191Z,143.03
2018-01-01T02:39:53.800Z,157.10
2018-01-01T02:42:21.487Z,156.40
2018-01-01T02:44:49.206Z,143.33
2018-01-01T02:47:16.925Z,126.63
2018-01-01T02:49:44.594Z,122.57
2018-01-01T02:52:12.206Z,132.77
2018-01-01T02:54:39.861Z,151.03
2018-01-01T02:57:07.532Z,158.60
2018-01-01T02:59:35.187Z,175.87
2018-01-01T03:02:02.802Z,164.57
2018-01-01T03:04:30.406Z,150.33
2018-01-01T03:06:58.030Z,175.40
2018-01-01T03:09:25.643Z,160.00
2018-01-01T03:11:53.314Z,156.80
2018-01-01T03:14:20.926Z,156.87
2018-01-01T03:16:48.600Z,181.47
2018-01-01T03:19:16.278Z,154.97
2018-01-01T03:21:43.882Z,151.87
2018-01-01T03:24:11.605Z,147.83
2018-01-01T03:26:39.282Z,162.03
2018-01-01T03:29:06.960Z,144.03
2018-01-01T03:31:34.582Z,140.73
2018-01-01T03:34:02.255Z,117.63
2018-01-01T03:36:29.914Z,137.07
2018-01-01T03:38:57.605Z,138.87
2018-01-01T03:41:25.217Z,143.30
2018-01-01T03:43:52.894Z,143.60
2018-01-01T03:46:20.498Z,149.77
2018-01-01T03:48:48.165Z,155.57
2018-01-01T03:51:15.774Z,142.67
2018-01-01T03:53:43.382Z,148.23
2018-01-01T03:56:11.000Z,143.07
2018-01-01T03:58:38.667Z,145.90
2018-01-01T04:01:06.322Z,127.47
2018-01-01T04:03:33.934Z,132.37
2018-01-01T04:06:01.547Z,114.97
2018-01-01T04:08:29.226Z,128.20
2018-01-01T04:10:56.894Z,108.50
2018-01-01T04:13:24.570Z,105.73
2018-01-01T04:15:52.185Z,100.90
2018-01-01T04:18:19.785Z,102.97
2018-01-01T04:20:47.466Z,100.27
2018-01-01T04:23:15.070Z,120.20
2018-01-01T04:25:42.727Z,131.37
2018-01-01T04:28:10.336Z,111.70
2018-01-01T04:30:37.945Z,114.20
2018-01-01T04:33:05.624Z,122.33
2018-01-01T04:35:33.250Z,114.60
2018-01-01T04:38:00.918Z,107.63
2018-01-01T04:40:28.596Z,120.03
2018-01-01T04:42:56.272Z,112.73
2018-01-01T04:45:23.898Z,103.00
2018-01-01T04:47:51.504Z,139.47
2018-01-01T04:50:19.165Z,214.73
2018-01-01T04:52:46.779Z,135.00
2018-01-01T04:55:14.383Z,122.53
2018-01-01T04:57:42.002Z,125.40
2018-01-01T05:00:09.615Z,109.73
2018-01-01T05:02:37.282Z,125.53
2018-01-01T05:05:04.951Z,115.17
2018-01-01T05:07:32.627Z,109.03
2018-01-01T05:10:00.247Z,106.13
2018-01-01T05:12:27.850Z,91.87
2018-01-01T05:14:55.510Z,94.00
2018-01-01T05:17:23.123Z,86.63
2018-01-01T05:19:50.738Z,82.47
2018-01-01T05:22:18.349Z,86.37
2018-01-01T05:24:45.954Z,82.87
2018-01-01T05:27:13.674Z,101.03
2018-01-01T05:29:41.280Z,72.00
2018-01-01T05:32:08.890Z,80.13
2018-01-01T05:34:36.517Z,103.57
2018-01-01T05:37:04.187Z,74.70
2018-01-01T05:39:31.876Z,77.17
2018-01-01T05:41:59.487Z,82.93
2018-01-01T05:44:27.110Z,77.70
2018-01-01T05:46:54.790Z,78.80
2018-01-01T05:49:22.402Z,85.27
2018-01-01T05:51:50.062Z,82.77
2018-01-01T05:54:17.688Z,95.70
2018-01-01T05:56:45.356Z,87.10
2018-01-01T05:59:13.036Z,87.27
2018-01-01T06:01:40.720Z,95.67
2018-01-01T06:04:08.424Z,77.60
2018-01-01T06:06:36.030Z,78.73
2018-01-01T06:09:03.795Z,126.10
2018-01-01T06:11:31.418Z,135.03
2018-01-01T06:13:59.092Z,185.67
2018-01-01T06:16:26.762Z,139.20
2018-01-01T06:18:54.424Z,144.47
2018-01-01T06:21:22.094Z,145.27
2018-01-01T06:23:49.778Z,196.63
2018-01-01T06:26:17.393Z,263.23
2018-01-01T06:28:45.063Z,258.47
2018-01-01T06:31:12.674Z,211.80
2018-01-01T06:33:40.284Z,103.10
2018-01-01T06:36:07.903Z,95.10
2018-01-01T06:38:35.514Z,90.10
2018-01-01T06:41:03.179Z,91.23
2018-01-01T06:43:30.799Z,82.87
2018-01-01T06:45:58.421Z,76.13
2018-01-01T06:48:26.205Z,74.77
2018-01-01T06:50:53.866Z,69.17
2018-01-01T06:53:21.535Z,66.17
2018-01-01T06:55:49.207Z,69.73
2018-01-01T06:58:16.866Z,65.20
2018-01-01T07:00:44.487Z,63.53
2018-01-01T07:03:12.096Z,71.53
2018-01-01T07:05:39.810Z,73.00
2018-01-01T07:08:07.539Z,98.50
2018-01-01T07:10:35.206Z,95.20
2018-01-01T07:13:02.815Z,87.50
2018-01-01T07:15:30.414Z,78.30
2018-01-01T07:17:58.075Z,88.57
2018-01-01T07:20:25.744Z,68.17
2018-01-01T07:22:53.413Z,70.87
2018-01-01T07:25:21.080Z,73.27
2018-01-01T07:27:48.685Z,71.63
2018-01-01T07:30:16.415Z,61.10
2018-01-01T07:32:44.074Z,64.23
2018-01-01T07:35:11.748Z,46.77
2018-01-01T07:37:39.366Z,34.37
2018-01-01T07:40:06.978Z,33.97
2018-01-01T07:42:34.642Z,33.03
2018-01-01T07:45:02.307Z,28.30
2018-01-01T07:47:29.914Z,28.93
2018-01-01T07:49:57.525Z,32.17
2018-01-01T07:52:25.202Z,27.43
2018-01-01T07:54:52.874Z,26.10
2018-01-01T07:57:20.480Z,21.60
2018-01-01T07:59:48.083Z,20.17
2018-01-01T08:02:15.782Z,40.83
2018-01-01T08:04:43.394Z,54.30
2018-01-01T08:07:11.118Z,44.60
2018-01-01T08:09:38.726Z,37.57
2018-01-01T08:12:06.339Z,36.73
2018-01-01T08:14:33.959Z,38.63
2018-01-01T08:17:01.572Z,43.03
2018-01-01T08:19:29.281Z,37.53
2018-01-01T08:21:56.885Z,35.77
2018-01-01T08:24:24.525Z,43.00
2018-01-01T08:26:52.199Z,52.10
2018-01-01T08:29:19.827Z,52.70
2018-01-01T08:31:47.491Z,59.20
2018-01-01T08:34:15.160Z,35.90
2018-01-01T08:36:42.822Z,26.23
2018-01-01T08:39:10.495Z,9.60
2018-01-01T08:41:38.163Z,14.23
2018-01-01T08:44:05.829Z,11.03
2018-01-01T08:46:33.426Z,9.63
2018-01-01T08:49:01.025Z,8.70
2018-01-01T08:51:28.711Z,13.43
2018-01-01T08:53:56.390Z,11.17
2018-01-01T08:56:24.061Z,18.17
2018-01-01T08:58:51.726Z,20.43
2018-01-01T09:01:19.334Z,9.37
2018-01-01T09:03:47.015Z,12.50
2018-01-01T09:06:14.626Z,16.43
2018-01-01T09:08:42.293Z,15.37
2018-01-01T09:11:09.954Z,16.30
2018-01-01T09:13:37.562Z,11.70
2018-01-01T09:16:05.175Z,15.23
2018-01-01T09:18:32.795Z,12.97
2018-01-01T09:21:00.450Z,15.23
2018-01-01T09:23:28.125Z,20.50
2018-01-01T09:25:55.813Z,8.60
2018-01-01T09:28:23.495Z,15.70
2018-01-01T09:30:51.098Z,14.57
2018-01-01T09:33:18.855Z,11.77
2018-01-01T09:35:46.523Z,13.97
2018-01-01T09:38:14.130Z,15.50
2018-01-01T09:40:41.741Z,12.17
2018-01-01T09:43:09.333Z,7.70
2018-01-01T09:45:37.056Z,8.70
2018-01-01T09:48:04.666Z,12.53
2018-01-01T09:50:32.336Z,18.87
2018-01-01T09:52:59.953Z,11.50
2018-01-01T09:55:27.566Z,17.20
2018-01-01T09:57:55.222Z,17.83
2018-01-01T10:00:22.886Z,12.70
2018-01-01T10:02:50.497Z,14.33
2018-01-01T10:05:18.131Z,11.20
2018-01-01T10:07:45.745Z,10.30
2018-01-01T10:10:13.403Z,20.03
2018-01-01T10:12:40.999Z,8.67
2018-01-01T10:15:08.663Z,5.50
2018-01-01T10:17:36.338Z,8.03
2018-01-01T10:20:03.944Z,7.27
2018-01-01T10:22:31.663Z,6.80
2018-01-01T10:24:59.266Z,7.20
2018-01-01T10:27:26.866Z,6.23
2018-01-01T10:29:54.473Z,5.73
2018-01-01T10:32:22.075Z,4.37
2018-01-01T10:34:49.795Z,9.33
2018-01-01T10:37:17.431Z,11.37
2018-01-01T10:39:45.095Z,16.07
2018-01-01T10:42:12.706Z,13.30
2018-01-01T10:44:40.313Z,10.80
2018-01-01T10:47:08.035Z,18.97
2018-01-01T10:49:35.701Z,20.13
2018-01-01T10:52:03.308Z,20.20
2018-01-01T10:54:30.919Z,49.37
2018-01-01T10:56:58.522Z,7.30
2018-01-01T10:59:26.239Z,12.13
2018-01-01T11:01:53.844Z,5.73
2018-01-01T11:04:21.450Z,5.30
2018-01-01T11:06:49.054Z,5.87
2018-01-01T11:09:16.655Z,11.93
2018-01-01T11:11:44.314Z,5.33
2018-01-01T11:14:11.955Z,6.53
2018-01-01T11:16:39.606Z,7.60
2018-01-01T11:19:07.271Z,4.53
2018-01-01T11:21:34.935Z,7.80
2018-01-01T11:24:02.602Z,7.30
2018-01-01T11:26:30.240Z,12.00
2018-01-01T11:28:57.930Z,6.50
2018-01-01T11:31:25.531Z,5.03
2018-01-01T11:33:53.139Z,18.20
2018-01-01T11:36:20.811Z,29.50
2018-01-01T11:38:48.414Z,25.53
2018-01-01T11:41:16.040Z,14.97
2018-01-01T11:43:43.666Z,14.20
2018-01-01T11:46:11.263Z,4.80
2018-01-01T11:48:38.987Z,29.93
2018-01-01T11:51:06.586Z,10.73
2018-01-01T11:53:34.182Z,17.60
2018-01-01T11:56:01.795Z,23.50
2018-01-01T11:58:29.403Z,7.70
2018-01-01T12:00:57.055Z,9.13
2018-01-01T12:03:24.666Z,12.00
2018-01-01T12:05:52.266Z,4.90
2018-01-01T12:08:19.868Z,7.47
2018-01-01T12:10:47.471Z,10.00
2018-01-01T12:13:15.133Z,18.80
2018-01-01T12:15:42.746Z,13.00
2018-01-01T12:18:10.378Z,23.37
2018-01-01T12:20:38.003Z,14.83
2018-01-01T12:23:05.671Z,16.00
2018-01-01T12:25:33.339Z,6.13
2018-01-01T12:28:00.942Z,9.63
2018-01-01T12:30:28.555Z,4.10
2018-01-01T12:32:56.228Z,16.97
2018-01-01T12:35:23.839Z,5.70
2018-01-01T12:37:51.502Z,6.57
2018-01-01T12:40:19.102Z,5.77
2018-01-01T12:42:46.788Z,4.10
2018-01-01T12:45:14.459Z,3.80
2018-01-01T12:47:42.132Z,12.13
2018-01-01T12:50:09.854Z,13.40
2018-01-01T12:52:37.467Z,8.53
2018-01-01T12:55:05.136Z,9.53
2018-01-01T12:57:33.354Z,7.03
2018-01-01T13:00:01.008Z,4.90
2018-01-01T13:02:28.682Z,4.90
2018-01-01T13:04:56.342Z,4.60
2018-01-01T13:07:24.003Z,4.70
2018-01-01T13:09:51.666Z,5.40
2018-01-01T13:12:19.263Z,4.83
2018-01-01T13:14:46.934Z,8.17
2018-01-01T13:17:14.607Z,9.83
2018-01-01T13:19:42.332Z,14.07
2018-01-01T13:22:09.950Z,11.93
2018-01-01T13:24:37.572Z,10.47
2018-01-01T13:27:05.227Z,7.23
2018-01-01T13:29:32.899Z,4.50
2018-01-01T13:32:00.570Z,16.93
2018-01-01T13:34:28.199Z,24.30
2018-01-01T13:36:55.818Z,18.77
2018-01-01T13:39:23.405Z,16.57
2018-01-01T13:41:51.006Z,18.07
2018-01-01T13:44:18.673Z,20.73
2018-01-01T13:46:46.290Z,24.60
2018-01-01T13:49:13.964Z,19.37
2018-01-01T13:51:42.358Z,20.93
2018-01-01T13:54:10.040Z,24.50
2018-01-01T13:56:37.720Z,24.23
2018-01-01T13:59:05.408Z,26.87
2018-01-01T14:01:32.965Z,19.60
2018-01-01T14:04:00.558Z,42.30
2018-01-01T14:06:28.169Z,40.03
2018-01-01T14:08:55.730Z,43.63
2018-01-01T14:11:23.305Z,38.63
2018-01-01T14:13:50.868Z,54.23
2018-01-01T14:16:18.456Z,52.60
2018-01-01T14:18:46.045Z,57.73
2018-01-01T14:21:13.598Z,65.77
2018-01-01T14:23:41.159Z,60.33
2018-01-01T14:26:08.706Z,62.73
2018-01-01T14:28:36.366Z,59.03
2018-01-01T14:31:03.918Z,83.37
2018-01-01T14:33:31.752Z,72.13
2018-01-01T14:35:59.318Z,73.50
2018-01-01T14:38:26.931Z,67.13
2018-01-01T14:40:54.602Z,69.33
2018-01-01T14:43:22.169Z,67.27
2018-01-01T14:45:49.778Z,75.73
2018-01-01T14:48:17.522Z,83.13
2018-01-01T14:50:45.218Z,86.00
2018-01-01T14:53:12.841Z,79.70
2018-01-01T14:55:40.469Z,92.80
2018-01-01T14:58:08.153Z,95.10
2018-01-01T15:00:36.001Z,82.33
2018-01-01T15:03:03.614Z,104.73
2018-01-01T15:05:31.338Z,85.90
2018-01-01T15:07:58.936Z,108.13
2018-01-01T15:10:26.541Z,103.20
2018-01-01T15:12:54.238Z,128.63
2018-01-01T15:15:21.838Z,124.53
2018-01-01T15:17:49.485Z,140.77
2018-01-01T15:20:17.033Z,154.20
2018-01-01T15:22:44.582Z,179.97
2018-01-01T15:25:12.136Z,145.53
2018-01-01T15:27:39.791Z,163.93
2018-01-01T15:30:07.376Z,136.10
2018-01-01T15:32:34.918Z,135.70
2018-01-01T15:35:03.362Z,151.37
2018-01-01T15:37:31.477Z,141.77
2018-01-01T15:39:59.105Z,174.43
2018-01-01T15:42:26.800Z,135.70
2018-01-01T15:44:54.354Z,151.20
2018-01-01T15:47:21.919Z,152.77
2018-01-01T15:49:49.481Z,357.77
2018-01-01T15:52:17.066Z,237.23
2018-01-01T15:54:44.721Z,245.97
2018-01-01T15:57:12.269Z,189.07
2018-01-01T15:59:39.819Z,192.87
2018-01-01T16:02:07.445Z,168.70
2018-01-01T16:04:35.034Z,212.63
2018-01-01T16:07:02.621Z,208.83
2018-01-01T16:09:30.183Z,196.53
2018-01-01T16:14:31.638Z,229.83
2018-01-01T16:16:59.251Z,239.40
2018-01-01T16:19:26.906Z,199.80
2018-01-01T16:21:54.470Z,206.43
2018-01-01T16:24:22.078Z,201.20
2018-01-01T16:26:50.007Z,213.67
2018-01-01T16:29:17.609Z,206.10
2018-01-01T16:31:45.216Z,261.07
2018-01-01T16:34:12.778Z,200.60
2018-01-01T16:36:40.331Z,219.90
2018-01-01T16:39:07.913Z,212.53
2018-01-01T16:41:35.450Z,207.80
2018-01-01T16:44:03.058Z,199.67
2018-01-01T16:46:30.605Z,215.57
2018-01-01T16:48:58.161Z,213.80
2018-01-01T16:51:25.774Z,206.57
2018-01-01T16:53:53.317Z,194.00
2018-01-01T16:56:20.969Z,167.47
2018-01-01T16:58:48.597Z,159.03
2018-01-01T17:01:16.191Z,184.90
2018-01-01T17:03:43.745Z,196.33
2018-01-01T17:06:11.362Z,221.00
2018-01-01T17:08:39.112Z,266.07
2018-01-01T17:11:06.674Z,277.90
2018-01-01T17:13:34.225Z,290.13
2018-01-01T17:16:01.781Z,245.77
2018-01-01T17:18:29.331Z,214.73
2018-01-01T17:20:56.917Z,237.10
2018-01-01T17:23:24.474Z,239.60
2018-01-01T17:25:52.095Z,217.00
2018-01-01T17:28:19.654Z,214.07
2018-01-01T17:30:47.325Z,238.93
2018-01-01T17:33:14.978Z,241.67
2018-01-01T17:35:42.583Z,194.57
2018-01-01T17:38:10.182Z,212.37
2018-01-01T17:40:37.804Z,167.67
2018-01-01T17:43:05.461Z,164.53
2018-01-01T17:45:33.182Z,171.90
2018-01-01T17:48:00.866Z,169.13
2018-01-01T17:50:28.540Z,183.00
2018-01-01T17:52:56.162Z,191.97
2018-01-01T17:55:23.798Z,158.23
2018-01-01T17:57:51.434Z,155.20
2018-01-01T18:00:19.100Z,162.57
2018-01-01T18:02:46.697Z,140.90
2018-01-01T18:05:14.308Z,177.47
2018-01-01T18:07:41.862Z,155.77
2018-01-01T18:10:09.458Z,126.30
2018-01-01T18:12:37.066Z,117.13
2018-01-01T18:15:04.662Z,153.20
2018-01-01T18:17:32.224Z,153.03
2018-01-01T18:19:59.773Z,165.77
2018-01-01T18:22:27.361Z,183.97
2018-01-01T18:24:54.958Z,137.93
2018-01-01T18:27:22.505Z,133.63
2018-01-01T18:29:50.053Z,148.80
2018-01-01T18:32:17.594Z,152.70
2018-01-01T18:34:45.166Z,138.73
2018-01-01T18:37:12.706Z,162.67
2018-01-01T18:39:40.314Z,158.80
2018-01-01T18:42:07.866Z,145.97
2018-01-01T18:44:35.475Z,139.07
2018-01-01T18:47:03.065Z,125.00
2018-01-01T18:49:30.662Z,121.17
2018-01-01T18:51:58.213Z,115.27
2018-01-01T18:54:25.829Z,127.77
2018-01-01T18:56:53.373Z,152.30
2018-01-01T18:59:20.956Z,192.37
2018-01-01T19:01:48.539Z,196.93
2018-01-01T19:04:16.098Z,196.60
2018-01-01T19:06:43.705Z,218.37
2018-01-01T19:09:11.288Z,331.33
2018-01-01T19:11:38.936Z,400.40
2018-01-01T19:14:06.504Z,349.77
2018-01-01T19:16:34.118Z,303.23
2018-01-01T19:19:01.673Z,153.30
2018-01-01T19:21:29.223Z,150.33
2018-01-01T19:23:56.829Z,108.90
2018-01-01T19:26:24.376Z,95.10
2018-01-01T19:28:51.920Z,164.07
2018-01-01T19:31:19.539Z,184.47
2018-01-01T19:33:47.151Z,204.77
2018-01-01T19:36:14.745Z,180.40
2018-01-01T19:38:42.341Z,216.00
2018-01-01T19:41:09.886Z,168.30
2018-01-01T19:43:37.437Z,179.67
2018-01-01T19:46:04.978Z,155.17
2018-01-01T19:48:32.653Z,129.03
2018-01-01T19:51:00.264Z,122.87
2018-01-01T19:53:27.865Z,111.20
2018-01-01T19:55:55.417Z,115.37
2018-01-01T19:58:22.973Z,141.23
2018-01-01T20:00:50.619Z,134.43
2018-01-01T20:03:18.238Z,137.60
2018-01-01T20:05:45.907Z,175.37
2018-01-01T20:08:13.464Z,148.70
2018-01-01T20:10:41.017Z,143.50
2018-01-01T20:13:08.593Z,95.60
2018-01-01T20:15:36.125Z,81.27
2018-01-01T20:18:03.660Z,114.63
2018-01-01T20:20:31.217Z,99.60
2018-01-01T20:22:58.761Z,122.27
2018-01-01T20:25:26.356Z,90.97
2018-01-01T20:27:53.894Z,84.40
2018-01-01T20:30:21.438Z,85.73
2018-01-01T20:32:48.987Z,89.47
2018-01-01T20:35:16.588Z,90.33
2018-01-01T20:37:44.174Z,95.93
2018-01-01T20:40:11.770Z,87.00
2018-01-01T20:42:39.370Z,88.40
2018-01-01T20:45:06.989Z,82.37
2018-01-01T20:47:34.537Z,99.30
2018-01-01T20:50:02.125Z,120.47
2018-01-01T20:52:29.693Z,129.67
2018-01-01T20:54:57.246Z,140.03
2018-01-01T20:57:24.808Z,135.87
2018-01-01T20:59:52.414Z,137.17
2018-01-01T21:02:19.988Z,154.53
2018-01-01T21:04:47.538Z,143.87
2018-01-01T21:07:15.146Z,189.50
2018-01-01T21:09:42.758Z,136.10
2018-01-01T21:12:10.310Z,124.63
2018-01-01T21:14:37.890Z,116.17
2018-01-01T21:17:05.437Z,114.17
2018-01-01T21:19:33.052Z,118.00
2018-01-01T21:22:00.597Z,79.33
2018-01-01T21:24:28.204Z,98.77
2018-01-01T21:26:55.886Z,106.53
2018-01-01T21:29:23.442Z,96.40
2018-01-01T21:31:50.998Z,90.17
2018-01-01T21:34:18.549Z,82.87
2018-01-01T21:36:46.131Z,78.40
2018-01-01T21:39:13.782Z,69.70
2018-01-01T21:41:41.382Z,87.20
2018-01-01T21:44:08.962Z,74.00
2018-01-01T21:46:36.526Z,63.10
2018-01-01T21:49:04.074Z,82.80
2018-01-01T21:51:31.662Z,81.13
2018-01-01T21:53:59.266Z,84.63
2018-01-01T21:56:27.741Z,82.17
2018-01-01T21:58:55.301Z,72.77
2018-01-01T22:01:22.846Z,64.90
2018-01-01T22:03:50.431Z,60.53
2018-01-01T22:06:18.080Z,71.13
2018-01-01T22:08:45.621Z,75.67
2018-01-01T22:11:13.182Z,67.47
2018-01-01T22:13:40.752Z,72.87
2018-01-01T22:16:08.402Z,83.73
2018-01-01T22:18:35.937Z,75.47
2018-01-01T22:21:03.482Z,83.27
2018-01-01T22:23:31.042Z,93.67
2018-01-01T22:25:58.603Z,136.47
2018-01-01T22:28:26.191Z,140.13
2018-01-01T22:30:53.742Z,117.53
2018-01-01T22:33:21.341Z,112.33
2018-01-01T22:35:48.897Z,99.57
2018-01-01T22:38:16.478Z,107.63
2018-01-01T22:40:44.065Z,99.73
2018-01-01T22:43:11.618Z,81.80
2018-01-01T22:45:39.170Z,91.10
2018-01-01T22:48:06.733Z,150.53
2018-01-01T22:50:34.296Z,149.57
2018-01-01T22:53:01.873Z,80.00
2018-01-01T22:55:29.419Z,74.33
2018-01-01T22:57:56.973Z,54.37
2018-01-01T23:00:24.598Z,61.87
2018-01-01T23:02:52.206Z,71.97
2018-01-01T23:05:19.805Z,121.03
2018-01-01T23:07:47.382Z,103.00
2018-01-01T23:10:14.930Z,91.73
2018-01-01T23:12:42.494Z,92.77
2018-01-01T23:15:10.053Z,68.93
2018-01-01T23:17:37.642Z,74.93
2018-01-01T23:20:05.189Z,48.77
2018-01-01T23:22:32.739Z,52.33
2018-01-01T23:25:00.286Z,62.00
2018-01-01T23:27:27.881Z,68.43
2018-01-01T23:29:55.461Z,53.50
2018-01-01T23:32:23.000Z,56.93
2018-01-01T23:34:50.542Z,45.23
2018-01-01T23:37:18.151Z,54.23
2018-01-01T23:39:45.705Z,44.30
2018-01-01T23:42:13.283Z,37.10
2018-01-01T23:44:40.818Z,28.73
2018-01-01T23:47:08.422Z,41.10
2018-01-01T23:49:36.046Z,47.13
2018-01-01T23:52:03.587Z,30.03
2018-01-01T23:54:31.173Z,43.20
2018-01-01T23:56:58.833Z,44.10
2018-01-01T23:59:26.387Z,43.70
